Time;durP1;ratioP1;P1;durP2;ratioP2;P2;SDS_P1;SDS_P2;PMS_P1;PMS_P2;Temp;Humidity;BMP_temperature;BMP_pressure;BME280_temperature;BME280_humidity;BME280_pressure;Samples;Min_cycle;Max_cycle;Signal;HPM_P1;HPM_P2
2024/03/28 00:01:43;;;;;;;6.15;0.70;;;;;;;;;;5036487;28;20061;-77
2024/03/28 00:04:09;;;;;;;7.13;0.98;;;;;;;;;;5036030;28;20071;-75
2024/03/28 00:06:35;;;;;;;8.55;1.42;;;;;;;;;;5053063;28;20037;-76
2024/03/28 00:09:00;;;;;;;7.13;0.90;;;;;;;;;;5036364;28;20086;-77
2024/03/28 00:11:26;;;;;;;5.25;0.75;;;;;;;;;;5052672;28;20379;-76
2024/03/28 00:13:52;;;;;;;8.85;1.10;;;;;;;;;;5036285;28;20044;-76
2024/03/28 00:16:18;;;;;;;5.53;0.73;;;;;;;;;;5052376;28;20045;-77
2024/03/28 00:18:44;;;;;;;5.40;0.80;;;;;;;;;;5051951;28;20103;-77
2024/03/28 00:21:09;;;;;;;2.85;0.80;;;;;;;;;;5035750;28;20041;-77
2024/03/28 00:23:35;;;;;;;4.70;1.00;;;;;;;;;;5036169;28;20070;-77
2024/03/28 00:26:01;;;;;;;6.65;1.13;;;;;;;;;;5026466;28;20546;-77
2024/03/28 00:28:27;;;;;;;9.73;1.20;;;;;;;;;;5032360;28;20479;-77
2024/03/28 00:30:53;;;;;;;6.68;1.00;;;;;;;;;;5032652;28;20046;-77
2024/03/28 00:33:19;;;;;;;6.00;2.00;;;;;;;;;;4999108;28;20468;-76
2024/03/28 00:35:46;;;;;;;7.10;1.10;;;;;;;;;;5028518;28;20053;-77
2024/03/28 00:38:13;;;;;;;12.65;1.42;;;;;;;;;;5052003;28;20041;-77
2024/03/28 00:40:54;;;;;;;10.07;1.20;;;;;;;;;;5052470;28;20049;-77
2024/03/28 00:43:22;;;;;;;6.50;0.98;;;;;;;;;;5035500;28;20464;-77
2024/03/28 00:45:47;;;;;;;10.32;0.98;;;;;;;;;;5052304;28;20049;-77
2024/03/28 00:48:16;;;;;;;9.68;1.10;;;;;;;;;;5051751;28;20045;-77
2024/03/28 00:50:42;;;;;;;6.60;0.77;;;;;;;;;;5052200;28;20051;-77
2024/03/28 00:53:07;;;;;;;10.88;1.70;;;;;;;;;;5035259;28;20098;-77
2024/03/28 00:55:33;;;;;;;12.75;1.20;;;;;;;;;;5052151;28;20037;-77
2024/03/28 00:57:59;;;;;;;11.95;1.98;;;;;;;;;;5052221;28;20480;-76
2024/03/28 01:00:25;;;;;;;6.90;1.02;;;;;;;;;;5018688;28;20052;-77
2024/03/28 01:02:51;;;;;;;11.23;1.50;;;;;;;;;;5035380;28;20049;-77
2024/03/28 01:05:16;;;;;;;11.90;1.33;;;;;;;;;;5051695;28;20446;-76
2024/03/28 01:07:42;;;;;;;10.65;1.58;;;;;;;;;;5035296;28;20041;-76
2024/03/28 01:10:09;;;;;;;7.25;0.93;;;;;;;;;;5051658;28;20053;-77
2024/03/28 01:12:35;;;;;;;9.07;1.15;;;;;;;;;;5035247;28;20041;-77
2024/03/28 01:15:00;;;;;;;15.30;1.50;;;;;;;;;;5051747;28;20051;-77
2024/03/28 01:17:26;;;;;;;17.17;1.48;;;;;;;;;;5034808;28;20091;-77
2024/03/28 01:19:52;;;;;;;8.60;1.65;;;;;;;;;;5035180;28;20090;-76
2024/03/28 01:22:19;;;;;;;15.70;1.48;;;;;;;;;;5034703;28;20079;-77
2024/03/28 01:24:46;;;;;;;16.83;1.90;;;;;;;;;;5035183;28;20067;-77
2024/03/28 01:27:12;;;;;;;9.15;1.40;;;;;;;;;;5015540;28;20503;-77
2024/03/28 01:29:38;;;;;;;10.13;1.55;;;;;;;;;;4998788;28;20049;-77
2024/03/28 01:32:04;;;;;;;21.90;2.00;;;;;;;;;;5031411;28;20056;-76
2024/03/28 01:34:30;;;;;;;15.75;1.90;;;;;;;;;;5033538;28;20038;-77
2024/03/28 01:36:56;;;;;;;17.40;2.20;;;;;;;;;;5034767;28;20598;-77
2024/03/28 01:39:21;;;;;;;10.52;1.80;;;;;;;;;;5034770;28;20041;-77
2024/03/28 01:41:51;;;;;;;13.85;1.90;;;;;;;;;;5051476;28;20109;-77
2024/03/28 01:44:20;;;;;;;15.63;2.25;;;;;;;;;;5051074;28;20045;-77
2024/03/28 01:46:49;;;;;;;20.00;2.28;;;;;;;;;;5051653;28;20040;-77
2024/03/28 01:49:16;;;;;;;12.18;1.40;;;;;;;;;;5017929;28;20110;-77
2024/03/28 01:51:42;;;;;;;10.77;1.50;;;;;;;;;;5034323;28;20045;-77
2024/03/28 01:54:10;;;;;;;12.05;1.42;;;;;;;;;;5050984;28;20045;-76
2024/03/28 01:56:37;;;;;;;14.73;2.20;;;;;;;;;;5034904;28;20044;-77
2024/03/28 01:59:04;;;;;;;15.18;1.50;;;;;;;;;;5018373;28;20041;-76
2024/03/28 02:01:30;;;;;;;15.70;1.40;;;;;;;;;;5051158;28;20308;-77
2024/03/28 02:03:56;;;;;;;11.27;1.50;;;;;;;;;;5051322;28;20044;-77
2024/03/28 02:06:23;;;;;;;10.98;1.60;;;;;;;;;;5050934;28;20049;-77
2024/03/28 02:08:50;;;;;;;22.60;2.22;;;;;;;;;;5034703;28;20041;-76
2024/03/28 02:11:17;;;;;;;10.80;1.50;;;;;;;;;;5050900;28;20053;-77
2024/03/28 02:13:43;;;;;;;16.40;2.38;;;;;;;;;;5034639;28;20049;-78
2024/03/28 02:16:09;;;;;;;12.30;2.13;;;;;;;;;;5051009;28;20395;-77
2024/03/28 02:18:34;;;;;;;17.20;2.17;;;;;;;;;;5051264;28;20086;-77
2024/03/28 02:21:00;;;;;;;11.63;2.08;;;;;;;;;;5051162;28;20399;-77
2024/03/28 02:23:26;;;;;;;20.23;2.28;;;;;;;;;;5034322;28;20124;-77
2024/03/28 02:25:52;;;;;;;12.55;1.90;;;;;;;;;;5026332;28;20053;-77
2024/03/28 02:28:17;;;;;;;13.05;1.30;;;;;;;;;;5030758;28;20041;-77
2024/03/28 02:30:44;;;;;;;12.18;2.05;;;;;;;;;;5031218;28;20041;-77
2024/03/28 02:33:10;;;;;;;13.43;1.75;;;;;;;;;;5030654;28;20062;-77
2024/03/28 02:35:35;;;;;;;8.60;1.45;;;;;;;;;;5025688;28;20458;-77
2024/03/28 02:38:01;;;;;;;15.05;1.48;;;;;;;;;;5051091;28;20074;-77
2024/03/28 02:40:27;;;;;;;12.60;1.95;;;;;;;;;;5050684;28;20171;-77
2024/03/28 02:42:53;;;;;;;13.68;1.85;;;;;;;;;;5054532;28;20056;-77
2024/03/28 02:45:19;;;;;;;16.50;1.80;;;;;;;;;;5037662;28;20084;-77
2024/03/28 02:47:46;;;;;;;17.05;1.60;;;;;;;;;;5037914;28;20049;-77
2024/03/28 02:50:12;;;;;;;19.17;2.10;;;;;;;;;;5037383;28;20044;-76
2024/03/28 02:52:39;;;;;;;18.90;2.78;;;;;;;;;;5054498;28;20472;-77
2024/03/28 02:55:05;;;;;;;14.93;1.85;;;;;;;;;;5037239;28;20047;-76
2024/03/28 02:57:31;;;;;;;10.35;1.45;;;;;;;;;;5054477;28;20044;-77
2024/03/28 02:59:56;;;;;;;13.77;1.88;;;;;;;;;;5054342;28;20468;-76
2024/03/28 03:02:23;;;;;;;21.33;2.72;;;;;;;;;;5037321;28;20044;-76
2024/03/28 03:04:49;;;;;;;16.05;2.58;;;;;;;;;;5037619;28;20044;-76
2024/03/28 03:07:15;;;;;;;17.58;2.60;;;;;;;;;;5053667;28;20037;-75
2024/03/28 03:09:44;;;;;;;19.10;2.88;;;;;;;;;;5054136;28;20040;-76
2024/03/28 03:12:10;;;;;;;23.27;3.10;;;;;;;;;;5037170;28;20491;-77
2024/03/28 03:14:36;;;;;;;23.23;2.95;;;;;;;;;;5053987;28;20056;-77
2024/03/28 03:17:01;;;;;;;31.67;3.50;;;;;;;;;;5054046;28;20045;-77
2024/03/28 03:19:27;;;;;;;28.00;3.53;;;;;;;;;;5053666;28;20070;-76
2024/03/28 03:21:53;;;;;;;30.45;4.75;;;;;;;;;;5053965;28;20476;-76
2024/03/28 03:24:19;;;;;;;31.65;3.33;;;;;;;;;;5053467;28;20068;-76
2024/03/28 03:27:00;;;;;;;26.05;3.65;;;;;;;;;;5021684;28;20077;-76
2024/03/28 03:34:57;;;;;;;17.48;3.00;;;;;;;;;;5039296;28;20045;-76
2024/03/28 03:37:26;;;;;;;22.35;2.90;;;;;;;;;;5053252;28;20095;-76
2024/03/28 03:40:09;;;;;;;25.85;4.03;;;;;;;;;;5036917;28;20053;-76
2024/03/28 03:42:34;;;;;;;19.63;2.58;;;;;;;;;;5053401;28;20462;-77
2024/03/28 03:45:00;;;;;;;30.73;3.00;;;;;;;;;;5053464;28;20036;-81
2024/03/28 03:47:26;;;;;;;14.68;1.75;;;;;;;;;;5036474;28;20380;-77
2024/03/28 03:49:52;;;;;;;18.38;2.00;;;;;;;;;;5036769;28;20041;-76
2024/03/28 03:52:18;;;;;;;14.90;1.80;;;;;;;;;;5052867;28;20075;-77
2024/03/28 03:54:44;;;;;;;14.60;2.85;;;;;;;;;;5053246;28;20077;-77
2024/03/28 03:57:11;;;;;;;20.38;2.25;;;;;;;;;;5052787;28;20045;-77
2024/03/28 03:59:38;;;;;;;13.98;1.73;;;;;;;;;;5053221;28;20045;-77
2024/03/28 04:02:04;;;;;;;20.20;2.45;;;;;;;;;;5052700;28;20037;-76
2024/03/28 04:04:31;;;;;;;20.65;2.45;;;;;;;;;;5036565;28;20040;-77
2024/03/28 04:06:57;;;;;;;18.55;2.50;;;;;;;;;;5019972;28;20488;-76
2024/03/28 04:09:23;;;;;;;20.63;3.08;;;;;;;;;;5052607;28;20073;-77
2024/03/28 04:11:50;;;;;;;47.33;4.22;;;;;;;;;;5052922;28;20070;-76
2024/03/28 04:14:16;;;;;;;26.60;3.50;;;;;;;;;;5052301;28;20445;-77
2024/03/28 04:16:42;;;;;;;26.38;3.65;;;;;;;;;;5036297;28;20395;-77
2024/03/28 04:19:08;;;;;;;32.80;3.30;;;;;;;;;;5052560;28;20424;-77
2024/03/28 04:21:34;;;;;;;32.10;3.25;;;;;;;;;;5036272;28;20128;-77
2024/03/28 04:24:01;;;;;;;44.75;3.70;;;;;;;;;;5036121;28;20045;-77
2024/03/28 04:26:27;;;;;;;22.55;3.40;;;;;;;;;;5022745;28;20045;-77
2024/03/28 04:28:53;;;;;;;25.27;2.95;;;;;;;;;;5032659;28;20045;-76
2024/03/28 04:31:18;;;;;;;19.60;2.33;;;;;;;;;;5015898;28;20361;-77
2024/03/28 04:33:46;;;;;;;19.38;2.53;;;;;;;;;;5032357;28;20049;-76
2024/03/28 04:36:11;;;;;;;15.15;2.35;;;;;;;;;;5048183;28;20387;-77
2024/03/28 04:38:37;;;;;;;15.57;1.95;;;;;;;;;;5052570;28;20127;-76
2024/03/28 04:41:03;;;;;;;14.73;2.22;;;;;;;;;;5035859;28;20037;-76
2024/03/28 04:43:30;;;;;;;18.75;2.35;;;;;;;;;;5035492;28;20060;-76
2024/03/28 04:45:56;;;;;;;26.05;3.20;;;;;;;;;;5052371;28;20049;-77
2024/03/28 04:48:22;;;;;;;27.83;3.88;;;;;;;;;;5051932;28;20050;-77
2024/03/28 04:50:47;;;;;;;29.13;3.45;;;;;;;;;;5052385;28;20047;-77
2024/03/28 04:53:13;;;;;;;23.42;2.83;;;;;;;;;;5035398;28;20045;-77
2024/03/28 04:55:40;;;;;;;28.88;3.55;;;;;;;;;;5052043;28;20037;-77
2024/03/28 04:58:06;;;;;;;22.95;3.08;;;;;;;;;;5035274;28;20049;-76
2024/03/28 05:00:32;;;;;;;22.23;2.70;;;;;;;;;;5052111;28;20064;-76
2024/03/28 05:02:57;;;;;;;20.33;2.17;;;;;;;;;;5035349;28;20051;-76
2024/03/28 05:05:23;;;;;;;25.20;3.17;;;;;;;;;;5051272;28;20431;-75
2024/03/28 05:07:49;;;;;;;20.83;2.63;;;;;;;;;;5051974;28;20385;-76
2024/03/28 05:10:15;;;;;;;14.45;2.30;;;;;;;;;;5051513;28;20094;-76
2024/03/28 05:12:41;;;;;;;23.33;3.08;;;;;;;;;;5051965;28;20037;-75
2024/03/28 05:15:07;;;;;;;22.17;2.42;;;;;;;;;;5034790;28;20045;-76
2024/03/28 05:17:33;;;;;;;20.10;3.22;;;;;;;;;;5035364;28;20387;-76
2024/03/28 05:19:59;;;;;;;20.27;3.00;;;;;;;;;;5051776;28;20044;-76
2024/03/28 05:22:26;;;;;;;18.92;2.65;;;;;;;;;;5051262;28;20474;-76
2024/03/28 05:24:52;;;;;;;22.80;2.95;;;;;;;;;;5051790;28;20045;-77
2024/03/28 05:27:18;;;;;;;33.03;4.15;;;;;;;;;;5031254;28;20128;-77
2024/03/28 05:29:43;;;;;;;31.55;3.25;;;;;;;;;;5015405;28;20052;-77
2024/03/28 05:32:09;;;;;;;28.35;3.97;;;;;;;;;;5014851;28;20072;-77
2024/03/28 05:34:35;;;;;;;26.30;4.18;;;;;;;;;;5034246;28;20135;-76
2024/03/28 05:37:01;;;;;;;37.33;4.03;;;;;;;;;;5035040;28;20045;-76
2024/03/28 05:39:27;;;;;;;35.50;4.90;;;;;;;;;;5051222;28;20041;-76
2024/03/28 05:41:54;;;;;;;47.28;5.40;;;;;;;;;;5035029;28;20045;-79
2024/03/28 05:44:20;;;;;;;44.10;5.43;;;;;;;;;;5050878;28;20041;-76
2024/03/28 05:46:45;;;;;;;42.45;6.68;;;;;;;;;;5035060;28;20102;-76
2024/03/28 05:49:11;;;;;;;62.20;7.93;;;;;;;;;;5034410;28;20132;-76
2024/03/28 05:51:37;;;;;;;40.63;5.80;;;;;;;;;;5051443;28;20049;-80
2024/03/28 05:54:03;;;;;;;44.17;5.82;;;;;;;;;;5051107;28;20041;-76
2024/03/28 05:56:28;;;;;;;33.97;4.53;;;;;;;;;;5034087;28;20391;-76
2024/03/28 05:58:54;;;;;;;41.15;4.75;;;;;;;;;;5018317;28;20091;-77
2024/03/28 06:01:20;;;;;;;38.15;4.72;;;;;;;;;;5050919;28;20061;-75
2024/03/28 06:03:46;;;;;;;37.58;5.93;;;;;;;;;;5051341;28;20051;-77
2024/03/28 06:06:12;;;;;;;36.38;8.05;;;;;;;;;;5050794;28;20056;-76
2024/03/28 06:08:39;;;;;;;48.90;7.57;;;;;;;;;;5018083;28;20044;-76
2024/03/28 06:11:05;;;;;;;54.38;6.85;;;;;;;;;;5034441;28;20124;-75
2024/03/28 06:13:31;;;;;;;53.08;6.68;;;;;;;;;;5042371;28;20410;-77
2024/03/28 06:15:58;;;;;;;46.30;5.55;;;;;;;;;;5028594;28;20468;-76
2024/03/28 06:18:25;;;;;;;58.17;7.72;;;;;;;;;;5024255;28;20385;-76
2024/03/28 06:21:01;;;;;;;51.05;7.13;;;;;;;;;;5033349;28;20037;-79
2024/03/28 06:23:27;;;;;;;47.08;6.35;;;;;;;;;;5033445;28;20046;-76
2024/03/28 06:25:53;;;;;;;40.78;6.97;;;;;;;;;;5013393;28;20125;-76
2024/03/28 06:28:19;;;;;;;48.28;6.28;;;;;;;;;;4997512;28;20120;-76
2024/03/28 06:30:48;;;;;;;51.63;6.93;;;;;;;;;;5015191;28;20068;-76
2024/03/28 06:33:13;;;;;;;;;;;;;;;;;;5023007;28;20144;-77
2024/03/28 06:35:39;;;;;;;52.35;7.25;;;;;;;;;;5015099;28;20287;-77
2024/03/28 06:38:06;;;;;;;51.50;6.53;;;;;;;;;;4996101;28;20038;-77
2024/03/28 06:40:32;;;;;;;45.92;7.38;;;;;;;;;;4997121;28;20049;-76
2024/03/28 06:42:59;;;;;;;47.00;6.78;;;;;;;;;;5024841;28;20042;-77
2024/03/28 06:45:25;;;;;;;55.60;6.15;;;;;;;;;;5011369;28;21046;-77
2024/03/28 06:47:51;;;;;;;64.63;8.98;;;;;;;;;;5014994;28;20050;-77
2024/03/28 06:50:16;;;;;;;58.90;7.68;;;;;;;;;;5033480;28;20427;-76
2024/03/28 06:52:42;;;;;;;51.78;7.22;;;;;;;;;;5032448;28;20501;-77
2024/03/28 06:55:08;;;;;;;53.92;8.05;;;;;;;;;;5033801;28;20120;-77
2024/03/28 06:57:34;;;;;;;65.20;8.35;;;;;;;;;;5034499;28;20068;-77
2024/03/28 07:00:00;;;;;;;63.85;7.78;;;;;;;;;;5017625;28;20472;-76
2024/03/28 07:02:26;;;;;;;51.78;7.65;;;;;;;;;;5017601;28;20037;-77
2024/03/28 07:04:51;;;;;;;58.50;7.55;;;;;;;;;;5017493;28;20050;-76
2024/03/28 07:07:17;;;;;;;51.30;7.40;;;;;;;;;;5033847;28;20045;-77
2024/03/28 07:09:43;;;;;;;62.20;8.50;;;;;;;;;;5017728;28;20064;-77
2024/03/28 07:12:09;;;;;;;48.67;7.43;;;;;;;;;;5017444;28;20079;-76
2024/03/28 07:14:34;;;;;;;57.58;7.97;;;;;;;;;;5034134;28;20042;-76
2024/03/28 07:17:00;;;;;;;41.92;7.13;;;;;;;;;;5034134;28;20038;-77
2024/03/28 07:19:26;;;;;;;53.78;8.10;;;;;;;;;;5017067;28;20041;-77
2024/03/28 07:21:52;;;;;;;59.35;8.25;;;;;;;;;;5017500;28;20716;-76
2024/03/28 07:24:17;;;;;;;59.40;8.27;;;;;;;;;;5017055;28;20058;-77
2024/03/28 07:26:43;;;;;;;57.90;7.43;;;;;;;;;;5033412;28;20037;-76
2024/03/28 07:29:09;;;;;;;64.97;8.55;;;;;;;;;;5033422;28;20064;-76
2024/03/28 07:31:34;;;;;;;54.10;7.88;;;;;;;;;;5033872;28;20045;-77
2024/03/28 07:34:00;;;;;;;66.95;7.50;;;;;;;;;;5033558;28;20046;-76
2024/03/28 07:36:26;;;;;;;52.63;8.80;;;;;;;;;;5034684;28;20349;-77
2024/03/28 07:38:52;;;;;;;59.83;8.45;;;;;;;;;;5036880;28;20041;-77
2024/03/28 07:41:19;;;;;;;53.58;8.98;;;;;;;;;;5053137;28;20045;-76
2024/03/28 07:43:45;;;;;;;58.38;8.05;;;;;;;;;;5053637;28;20057;-77
2024/03/28 07:46:11;;;;;;;55.45;9.80;;;;;;;;;;5053050;28;20064;-76
2024/03/28 07:48:37;;;;;;;55.13;8.43;;;;;;;;;;5053468;28;20415;-76
2024/03/28 07:51:04;;;;;;;52.53;8.48;;;;;;;;;;5019772;28;20086;-76
2024/03/28 07:53:31;;;;;;;62.08;8.90;;;;;;;;;;5036847;28;20055;-76
2024/03/28 07:55:57;;;;;;;52.88;8.00;;;;;;;;;;5020199;28;20041;-76
2024/03/28 07:58:23;;;;;;;51.47;7.50;;;;;;;;;;5052784;28;20391;-77
2024/03/28 08:00:49;;;;;;;59.35;9.55;;;;;;;;;;5036693;28;20059;-77
2024/03/28 08:03:16;;;;;;;57.20;8.63;;;;;;;;;;5052762;28;20041;-76
2024/03/28 08:05:49;;;;;;;62.63;8.35;;;;;;;;;;5036594;28;20471;-76
2024/03/28 08:08:16;;;;;;;50.45;8.88;;;;;;;;;;5052673;28;20476;-77
2024/03/28 08:10:42;;;;;;;51.00;7.32;;;;;;;;;;5053085;28;20490;-76
2024/03/28 08:13:09;;;;;;;51.80;7.85;;;;;;;;;;5052607;28;20059;-77
2024/03/28 08:15:36;;;;;;;45.60;7.28;;;;;;;;;;5036351;28;20033;-77
2024/03/28 08:18:02;;;;;;;53.33;7.70;;;;;;;;;;5036341;28;20045;-77
2024/03/28 08:20:28;;;;;;;49.30;7.60;;;;;;;;;;5052443;28;20127;-76
2024/03/28 08:22:54;;;;;;;53.50;8.00;;;;;;;;;;5019799;28;20063;-77
2024/03/28 08:25:22;;;;;;;51.15;8.43;;;;;;;;;;5048524;28;20049;-77
2024/03/28 08:27:49;;;;;;;63.17;8.88;;;;;;;;;;5016262;28;20042;-77
2024/03/28 08:30:15;;;;;;;54.83;8.15;;;;;;;;;;5015894;28;20041;-77
2024/03/28 08:32:42;;;;;;;60.45;9.25;;;;;;;;;;5032799;28;20055;-77
2024/03/28 08:35:10;;;;;;;54.60;8.75;;;;;;;;;;5022726;28;20472;-77
2024/03/28 08:37:39;;;;;;;56.30;8.20;;;;;;;;;;5019435;28;20041;-77
2024/03/28 08:40:09;;;;;;;59.15;9.18;;;;;;;;;;5034883;28;20045;-76
2024/03/28 08:42:39;;;;;;;50.22;8.85;;;;;;;;;;5035962;28;20045;-76
2024/03/28 08:45:08;;;;;;;49.97;8.00;;;;;;;;;;5035448;28;20071;-76
2024/03/28 08:47:37;;;;;;;67.30;8.07;;;;;;;;;;5052364;28;20044;-76
2024/03/28 08:50:07;;;;;;;65.00;7.85;;;;;;;;;;5052199;28;20078;-77
2024/03/28 08:52:33;;;;;;;61.28;9.52;;;;;;;;;;5052119;28;20369;-77
2024/03/28 08:54:59;;;;;;;62.50;8.07;;;;;;;;;;5035575;28;20047;-76
2024/03/28 08:57:27;;;;;;;61.20;8.88;;;;;;;;;;5051939;28;20037;-77
2024/03/28 08:59:54;;;;;;;65.68;8.95;;;;;;;;;;5052127;28;20398;-76
2024/03/28 09:02:21;;;;;;;51.38;7.38;;;;;;;;;;5018740;28;20040;-77
2024/03/28 09:04:47;;;;;;;62.47;9.25;;;;;;;;;;5035699;28;20379;-77
2024/03/28 09:07:14;;;;;;;61.17;8.88;;;;;;;;;;5051603;28;20037;-77
2024/03/28 09:09:41;;;;;;;59.15;9.18;;;;;;;;;;5051757;28;20045;-77
2024/03/28 09:12:07;;;;;;;57.78;9.30;;;;;;;;;;5034781;28;20059;-77
2024/03/28 09:14:34;;;;;;;65.45;8.43;;;;;;;;;;5035127;28;20043;-76
2024/03/28 09:17:00;;;;;;;46.75;7.65;;;;;;;;;;5051720;28;20052;-77
2024/03/28 09:19:27;;;;;;;59.63;9.07;;;;;;;;;;5034856;28;20059;-77
2024/03/28 09:21:53;;;;;;;68.90;9.32;;;;;;;;;;5051890;28;20045;-76
2024/03/28 09:24:19;;;;;;;62.83;8.57;;;;;;;;;;5034794;28;20079;-76
2024/03/28 09:26:46;;;;;;;58.92;8.77;;;;;;;;;;5036238;28;20457;-77
2024/03/28 09:29:13;;;;;;;70.43;10.43;;;;;;;;;;5031482;28;20428;-77
2024/03/28 09:31:39;;;;;;;66.70;10.02;;;;;;;;;;4999028;28;20431;-76
2024/03/28 09:34:05;;;;;;;74.05;10.75;;;;;;;;;;5031130;28;20060;-76
2024/03/28 09:36:31;;;;;;;67.57;9.15;;;;;;;;;;5050294;28;20044;-77
2024/03/28 09:38:57;;;;;;;64.95;9.68;;;;;;;;;;5035094;28;20060;-76
2024/03/28 09:41:26;;;;;;;60.78;9.30;;;;;;;;;;5018222;28;20060;-77
2024/03/28 09:44:01;;;;;;;56.92;9.35;;;;;;;;;;5034911;28;20048;-77
2024/03/28 09:46:29;;;;;;;44.78;7.75;;;;;;;;;;5051268;28;20041;-77
2024/03/28 09:48:58;;;;;;;54.60;8.75;;;;;;;;;;5035071;28;20051;-77
2024/03/28 09:51:25;;;;;;;54.90;7.25;;;;;;;;;;5037947;28;20060;-77
2024/03/28 10:00:23;;;;;;;44.75;6.00;;;;;;;;;;5045701;27;20441;-77
2024/03/28 10:03:09;;;;;;;33.33;5.25;;;;;;;;;;5028557;28;20052;-78
2024/03/28 10:05:35;;;;;;;39.85;5.38;;;;;;;;;;5046535;28;20057;-78
2024/03/28 10:08:02;;;;;;;48.22;5.95;;;;;;;;;;5048552;28;20041;-78
2024/03/28 10:10:29;;;;;;;57.72;8.15;;;;;;;;;;5030516;28;20037;-77
2024/03/28 10:12:56;;;;;;;54.45;6.63;;;;;;;;;;5032070;28;20037;-76
2024/03/28 10:15:21;;;;;;;56.63;8.60;;;;;;;;;;5048253;28;20096;-78
2024/03/28 10:18:05;;;;;;;57.75;8.70;;;;;;;;;;5046887;28;20046;-78
2024/03/28 10:20:32;;;;;;;66.93;9.63;;;;;;;;;;5065108;28;20099;-78
2024/03/28 10:22:58;;;;;;;82.03;9.15;;;;;;;;;;5032132;28;20037;-77
2024/03/28 10:25:25;;;;;;;61.67;8.35;;;;;;;;;;5043866;28;20037;-78
2024/03/28 10:27:57;;;;;;;64.35;8.07;;;;;;;;;;5028716;28;20041;-77
2024/03/28 10:30:24;;;;;;;69.75;10.48;;;;;;;;;;5011702;28;20041;-78
2024/03/28 10:33:04;;;;;;;57.75;9.40;;;;;;;;;;5028478;28;20042;-78
2024/03/28 10:35:35;;;;;;;69.63;10.38;;;;;;;;;;5027929;28;20042;-77
2024/03/28 10:38:03;;;;;;;65.15;10.82;;;;;;;;;;5028355;28;20038;-78
2024/03/28 10:40:29;;;;;;;82.72;10.00;;;;;;;;;;5011876;28;20060;-77
2024/03/28 10:43:00;;;;;;;77.93;10.63;;;;;;;;;;5028286;28;20050;-78
2024/03/28 10:45:31;;;;;;;62.45;10.38;;;;;;;;;;5011460;28;20049;-77
2024/03/28 10:47:58;;;;;;;67.68;10.32;;;;;;;;;;5028379;28;20042;-78
2024/03/28 10:50:35;;;;;;;73.50;10.77;;;;;;;;;;5011378;28;20050;-78
2024/03/28 10:53:31;;;;;;;59.72;8.63;;;;;;;;;;5028269;28;20052;-77
2024/03/28 10:56:04;;;;;;;57.65;10.25;;;;;;;;;;5027390;28;20048;-78
2024/03/28 10:58:31;;;;;;;61.67;9.25;;;;;;;;;;5027730;28;20065;-77
2024/03/28 11:00:58;;;;;;;68.93;9.15;;;;;;;;;;5011316;28;20049;-77
2024/03/28 11:03:25;;;;;;;59.45;8.82;;;;;;;;;;5027396;28;20557;-78
2024/03/28 11:05:52;;;;;;;72.75;9.10;;;;;;;;;;5011516;28;20056;-78
2024/03/28 11:08:19;;;;;;;84.38;10.27;;;;;;;;;;5027633;28;20527;-78
2024/03/28 11:10:45;;;;;;;48.80;5.75;;;;;;;;;;5020150;28;20044;-78
2024/03/28 11:13:10;;;;;;;34.88;6.50;;;;;;;;;;5014147;28;20038;-77
2024/03/28 11:15:37;;;;;;;49.00;7.78;;;;;;;;;;5014640;28;20068;-77
2024/03/28 11:18:03;;;;;;;46.05;7.22;;;;;;;;;;5014471;28;20038;-77
2024/03/28 11:20:29;;;;;;;57.08;8.48;;;;;;;;;;5028207;28;20455;-77
2024/03/28 11:23:03;;;;;;;69.35;9.68;;;;;;;;;;5011308;28;20045;-77
2024/03/28 11:25:31;;;;;;;40.70;6.57;;;;;;;;;;5013538;28;20045;-77
2024/03/28 11:28:10;;;;;;;28.60;4.05;;;;;;;;;;4996382;28;20041;-77
2024/03/28 11:30:38;;;;;;;26.38;4.00;;;;;;;;;;5016166;28;20068;-78
2024/03/28 11:33:11;;;;;;;34.75;3.92;;;;;;;;;;4998354;28;20042;-77
2024/03/28 11:35:38;;;;;;;32.20;4.15;;;;;;;;;;5003423;28;20045;-77
2024/03/28 11:38:08;;;;;;;42.88;5.43;;;;;;;;;;5000129;28;20042;-77
2024/03/28 11:40:35;;;;;;;44.60;5.07;;;;;;;;;;4999163;28;20477;-78
2024/03/28 11:43:08;;;;;;;51.30;5.70;;;;;;;;;;5000216;28;20041;-78
2024/03/28 11:45:34;;;;;;;48.85;5.60;;;;;;;;;;4991470;28;20045;-78
2024/03/28 11:48:01;;;;;;;54.28;6.22;;;;;;;;;;5013101;28;20049;-78
2024/03/28 11:50:28;;;;;;;45.30;6.55;;;;;;;;;;5028419;28;20369;-78
2024/03/28 11:52:53;;;;;;;53.92;7.30;;;;;;;;;;5013695;28;20092;-78
2024/03/28 11:55:24;;;;;;;47.53;8.20;;;;;;;;;;4997261;28;20479;-78
2024/03/28 11:57:50;;;;;;;54.55;8.05;;;;;;;;;;4981233;28;20050;-78
2024/03/28 12:00:19;;;;;;;48.70;6.80;;;;;;;;;;5013103;28;20046;-78
2024/03/28 12:02:57;;;;;;;49.05;7.35;;;;;;;;;;5013691;28;20524;-78
2024/03/28 12:05:23;;;;;;;64.90;8.35;;;;;;;;;;5013131;28;20429;-78
2024/03/28 12:07:51;;;;;;;62.75;8.95;;;;;;;;;;4997463;28;20049;-78
2024/03/28 12:10:20;;;;;;;59.85;8.73;;;;;;;;;;5013277;28;20050;-78
2024/03/28 12:12:47;;;;;;;58.05;8.93;;;;;;;;;;5013384;28;20052;-78
2024/03/28 12:15:16;;;;;;;65.50;9.52;;;;;;;;;;5013257;28;20038;-78
2024/03/28 12:17:42;;;;;;;63.53;8.88;;;;;;;;;;4997140;28;20042;-78
2024/03/28 12:20:10;;;;;;;70.15;9.70;;;;;;;;;;5012880;28;20431;-78
2024/03/28 12:26:23;;;;;;;25.73;3.58;;;;;;;;;;5002756;28;20181;-78
2024/03/28 12:28:49;;;;;;;22.67;3.53;;;;;;;;;;5006444;28;20046;-78
2024/03/28 12:31:22;;;;;;;26.15;3.38;;;;;;;;;;5010408;28;20042;-78
2024/03/28 12:33:48;;;;;;;24.17;3.42;;;;;;;;;;4996626;28;20439;-78
2024/03/28 12:36:17;;;;;;;29.52;4.60;;;;;;;;;;5012519;28;20038;-78
2024/03/28 12:38:48;;;;;;;32.05;4.10;;;;;;;;;;5012923;28;20064;-78
2024/03/28 12:41:22;;;;;;;31.20;4.47;;;;;;;;;;5012610;28;20042;-78
2024/03/28 12:44:00;;;;;;;41.33;4.93;;;;;;;;;;5012814;28;20038;-78
2024/03/28 12:46:27;;;;;;;26.13;4.03;;;;;;;;;;4996063;28;20038;-78
2024/03/28 12:48:53;;;;;;;28.90;4.50;;;;;;;;;;4996357;28;20042;-78
2024/03/28 12:51:19;;;;;;;18.77;3.47;;;;;;;;;;5012286;28;20049;-78
2024/03/28 12:53:45;;;;;;;27.38;4.45;;;;;;;;;;5013018;28;20076;-78
2024/03/28 12:56:10;;;;;;;24.60;4.20;;;;;;;;;;5012688;28;20034;-77
2024/03/28 12:58:36;;;;;;;33.60;4.75;;;;;;;;;;5012336;28;20402;-78
2024/03/28 13:01:02;;;;;;;30.52;5.03;;;;;;;;;;4996377;28;20068;-78
2024/03/28 13:03:28;;;;;;;41.00;5.30;;;;;;;;;;4995855;28;20041;-78
2024/03/28 13:05:55;;;;;;;40.70;6.05;;;;;;;;;;5012552;28;20052;-78
2024/03/28 13:08:21;;;;;;;47.47;7.30;;;;;;;;;;5012258;28;20046;-78
2024/03/28 13:10:47;;;;;;;46.50;6.80;;;;;;;;;;5012495;28;20551;-78
2024/03/28 13:13:13;;;;;;;48.75;7.00;;;;;;;;;;5011892;28;20459;-77
2024/03/28 13:15:39;;;;;;;54.90;8.35;;;;;;;;;;4996117;28;20098;-78
2024/03/28 13:18:06;;;;;;;56.47;8.30;;;;;;;;;;5011880;28;20052;-78
2024/03/28 13:20:32;;;;;;;52.63;7.75;;;;;;;;;;4996086;28;20037;-78
2024/03/28 13:22:58;;;;;;;47.80;7.57;;;;;;;;;;4995933;28;20038;-78
2024/03/28 13:25:24;;;;;;;35.67;6.60;;;;;;;;;;5011943;28;22261;-78
2024/03/28 13:27:50;;;;;;;47.42;7.22;;;;;;;;;;5012021;28;20049;-78
2024/03/28 13:30:16;;;;;;;53.97;7.65;;;;;;;;;;5028437;28;20358;-78
2024/03/28 13:32:42;;;;;;;53.28;7.95;;;;;;;;;;5028309;28;20120;-78
2024/03/28 13:35:08;;;;;;;47.28;8.07;;;;;;;;;;5011758;28;20069;-78
2024/03/28 13:37:33;;;;;;;48.35;7.55;;;;;;;;;;5012059;28;20143;-78
2024/03/28 13:39:59;;;;;;;52.65;7.63;;;;;;;;;;5012118;28;20044;-78
2024/03/28 13:42:25;;;;;;;62.30;8.18;;;;;;;;;;5011663;28;20045;-78
2024/03/28 13:44:52;;;;;;;53.85;6.93;;;;;;;;;;5012008;28;20373;-78
2024/03/28 13:47:18;;;;;;;55.08;7.00;;;;;;;;;;5011631;28;20038;-78
2024/03/28 13:49:44;;;;;;;49.65;7.35;;;;;;;;;;5012013;28;20046;-78
2024/03/28 13:52:10;;;;;;;41.10;6.68;;;;;;;;;;5011629;28;20172;-77
2024/03/28 13:54:35;;;;;;;41.22;6.05;;;;;;;;;;5011966;28;20049;-78
2024/03/28 13:57:01;;;;;;;44.70;7.53;;;;;;;;;;5012176;28;20041;-78
2024/03/28 13:59:27;;;;;;;53.95;7.25;;;;;;;;;;5011117;28;20052;-78
2024/03/28 14:01:52;;;;;;;47.55;7.05;;;;;;;;;;5011615;28;20046;-78
2024/03/28 14:04:18;;;;;;;49.72;6.32;;;;;;;;;;5011285;28;20046;-78
2024/03/28 14:06:44;;;;;;;49.38;7.47;;;;;;;;;;5011901;28;20128;-78
2024/03/28 14:09:14;;;;;;;46.45;7.07;;;;;;;;;;5011264;28;20468;-78
2024/03/28 14:11:43;;;;;;;48.38;6.93;;;;;;;;;;5011811;28;20388;-77
2024/03/28 14:14:09;;;;;;;44.03;5.90;;;;;;;;;;5027573;28;20042;-78
2024/03/28 14:16:34;;;;;;;50.85;7.72;;;;;;;;;;4995357;28;20175;-77
2024/03/28 14:19:00;;;;;;;39.00;5.90;;;;;;;;;;5011745;28;20116;-77
2024/03/28 14:21:26;;;;;;;65.60;8.52;;;;;;;;;;5011001;28;20481;-78
2024/03/28 14:23:52;;;;;;;42.35;6.03;;;;;;;;;;5011775;28;20048;-78
2024/03/28 14:26:18;;;;;;;35.22;5.45;;;;;;;;;;5011204;28;20046;-78
2024/03/28 14:28:44;;;;;;;49.65;8.07;;;;;;;;;;5011423;28;20399;-78
2024/03/28 14:31:16;;;;;;;46.50;6.65;;;;;;;;;;4978640;28;20042;-79
2024/03/28 14:33:43;;;;;;;49.78;7.47;;;;;;;;;;5011636;28;20099;-78
2024/03/28 14:36:12;;;;;;;44.75;7.32;;;;;;;;;;5011053;28;20084;-78
2024/03/28 14:38:38;;;;;;;45.17;6.60;;;;;;;;;;5011541;28;20077;-79
2024/03/28 14:41:05;;;;;;;47.28;6.85;;;;;;;;;;4994749;28;20547;-78
2024/03/28 14:43:33;;;;;;;43.83;6.05;;;;;;;;;;4995065;28;20042;-78
2024/03/28 14:46:07;;;;;;;49.92;6.82;;;;;;;;;;5013367;28;20129;-78